createdAt,value
2018-03-04T00:00:25.248Z,96.96
2018-03-04T00:01:25.123Z,96.96
2018-03-04T00:02:24.989Z,96.96
2018-03-04T00:03:24.857Z,96.78
2018-03-04T00:04:24.728Z,96.78
2018-03-04T00:05:24.592Z,96.87
2018-03-04T00:06:24.463Z,96.87
2018-03-04T00:07:24.330Z,96.96
2018-03-04T00:08:24.202Z,96.78
2018-03-04T00:09:24.068Z,96.87
2018-03-04T00:10:23.938Z,96.96
2018-03-04T00:11:23.805Z,96.87
2018-03-04T00:12:23.673Z,96.78
2018-03-04T00:13:23.548Z,96.78
2018-03-04T00:14:23.411Z,96.78
2018-03-04T00:15:23.279Z,96.87
2018-03-04T00:16:23.153Z,96.96
2018-03-04T00:17:23.021Z,96.87
2018-03-04T00:18:22.886Z,96.87
2018-03-04T00:19:22.756Z,96.78
2018-03-04T00:20:22.624Z,96.40
2018-03-04T00:21:22.496Z,96.87
2018-03-04T00:22:22.362Z,96.87
2018-03-04T00:23:22.229Z,96.87
2018-03-04T00:24:22.097Z,96.59
2018-03-04T00:25:21.970Z,96.59
2018-03-04T00:26:21.836Z,96.68
2018-03-04T00:27:21.708Z,96.59
2018-03-04T00:28:21.573Z,96.59
2018-03-04T00:29:21.446Z,96.87
2018-03-04T00:30:21.312Z,96.59
2018-03-04T00:31:21.182Z,96.78
2018-03-04T00:32:21.051Z,96.96
2018-03-04T00:33:20.919Z,97.06
2018-03-04T00:34:20.789Z,96.87
2018-03-04T00:35:20.657Z,96.78
2018-03-04T00:36:20.526Z,96.96
2018-03-04T00:37:20.397Z,96.40
2018-03-04T00:38:20.266Z,96.30
2018-03-04T00:39:20.134Z,96.21
2018-03-04T00:40:20.004Z,96.30
2018-03-04T00:41:19.870Z,96.45
2018-03-04T00:42:19.739Z,96.26
2018-03-04T00:43:19.608Z,96.35
2018-03-04T00:44:19.482Z,96.45
2018-03-04T00:45:19.344Z,97.06
2018-03-04T00:46:19.214Z,97.06
2018-03-04T00:47:19.087Z,97.15
2018-03-04T00:48:18.952Z,97.15
2018-03-04T00:49:18.824Z,97.34
2018-03-04T00:50:18.691Z,97.15
2018-03-04T00:51:18.558Z,97.34
2018-03-04T00:52:18.429Z,96.96
2018-03-04T00:53:18.298Z,97.34
2018-03-04T00:54:18.166Z,97.34
2018-03-04T00:55:18.035Z,97.53
2018-03-04T00:56:17.903Z,97.25
2018-03-04T00:57:17.774Z,97.25
2018-03-04T00:58:17.646Z,97.15
2018-03-04T00:59:17.513Z,97.53
2018-03-04T01:00:17.378Z,97.53
2018-03-04T01:01:17.248Z,96.78
2018-03-04T01:02:17.117Z,96.49
2018-03-04T01:03:16.985Z,97.06
2018-03-04T01:04:16.853Z,97.15
2018-03-04T01:05:16.722Z,96.96
2018-03-04T01:06:16.588Z,96.96
2018-03-04T01:07:16.456Z,97.34
2018-03-04T01:08:16.326Z,97.44
2018-03-04T01:09:16.190Z,97.34
2018-03-04T01:10:16.060Z,96.87
2018-03-04T01:11:15.925Z,97.15
2018-03-04T01:12:15.798Z,97.06
2018-03-04T01:13:15.664Z,97.15
2018-03-04T01:14:15.536Z,97.44
2018-03-04T01:15:15.399Z,97.34
2018-03-04T01:16:15.271Z,96.87
2018-03-04T01:17:15.140Z,97.25
2018-03-04T01:18:15.004Z,97.06
2018-03-04T01:19:14.873Z,97.34
2018-03-04T01:20:14.741Z,97.39
2018-03-04T01:21:14.608Z,97.25
2018-03-04T01:22:14.476Z,97.01
2018-03-04T01:23:14.342Z,96.73
2018-03-04T01:24:14.208Z,97.10
2018-03-04T01:25:14.081Z,96.54
2018-03-04T01:26:13.948Z,97.06
2018-03-04T01:27:13.812Z,97.29
2018-03-04T01:28:13.680Z,96.91
2018-03-04T01:29:13.548Z,97.20
2018-03-04T01:30:13.415Z,97.25
2018-03-04T01:31:13.286Z,96.87
2018-03-04T01:32:13.150Z,97.15
2018-03-04T01:33:13.020Z,96.59
2018-03-04T01:34:12.887Z,97.06
2018-03-04T01:35:12.756Z,97.25
2018-03-04T01:36:12.624Z,97.25
2018-03-04T01:37:12.490Z,97.06
2018-03-04T01:38:12.357Z,96.87
2018-03-04T01:39:12.225Z,97.34
2018-03-04T01:40:12.091Z,97.06
2018-03-04T01:41:11.960Z,97.34
2018-03-04T01:42:11.827Z,97.15
2018-03-04T01:43:11.697Z,97.06
2018-03-04T01:44:11.561Z,97.06
2018-03-04T01:45:11.432Z,97.06
2018-03-04T01:46:11.297Z,97.15
2018-03-04T01:47:11.166Z,97.06
2018-03-04T01:48:11.033Z,96.96
2018-03-04T01:49:10.901Z,97.25
2018-03-04T01:50:10.769Z,96.96
2018-03-04T01:51:10.635Z,97.15
2018-03-04T01:52:10.503Z,97.06
2018-03-04T01:53:10.372Z,97.15
2018-03-04T01:54:10.246Z,97.25
2018-03-04T01:55:10.108Z,97.06
2018-03-04T01:56:09.976Z,97.15
2018-03-04T01:57:09.844Z,97.25
2018-03-04T01:58:09.713Z,97.44
2018-03-04T01:59:09.579Z,97.25
2018-03-04T02:00:09.447Z,96.87
2018-03-04T02:01:09.316Z,97.34
2018-03-04T02:02:09.182Z,97.72
2018-03-04T02:03:09.052Z,97.53
2018-03-04T02:04:08.924Z,97.15
2018-03-04T02:05:08.787Z,97.25
2018-03-04T02:06:08.658Z,97.72
2018-03-04T02:07:08.522Z,97.20
2018-03-04T02:08:08.393Z,97.39
2018-03-04T02:09:08.260Z,97.20
2018-03-04T02:10:08.128Z,97.20
2018-03-04T02:11:07.995Z,97.01
2018-03-04T02:12:07.863Z,97.10
2018-03-04T02:13:07.729Z,97.20
2018-03-04T02:14:07.596Z,97.29
2018-03-04T02:15:07.466Z,97.01
2018-03-04T02:16:07.332Z,97.01
2018-03-04T02:17:07.200Z,97.10
2018-03-04T02:18:07.070Z,97.29
2018-03-04T02:19:06.938Z,97.01
2018-03-04T02:20:06.802Z,97.01
2018-03-04T02:21:06.674Z,97.29
2018-03-04T02:22:06.540Z,97.20
2018-03-04T02:23:06.404Z,97.29
2018-03-04T02:24:06.274Z,97.01
2018-03-04T02:25:06.141Z,97.39
2018-03-04T02:26:06.009Z,97.67
2018-03-04T02:27:05.878Z,97.48
2018-03-04T02:28:05.741Z,97.10
2018-03-04T02:29:05.608Z,97.48
2018-03-04T02:30:05.567Z,97.29
2018-03-04T02:31:05.343Z,96.91
2018-03-04T02:32:05.211Z,97.10
2018-03-04T02:33:05.081Z,97.10
2018-03-04T02:34:04.946Z,97.58
2018-03-04T02:35:04.815Z,97.39
2018-03-04T02:36:04.683Z,97.20
2018-03-04T02:37:04.545Z,97.29
2018-03-04T02:38:04.415Z,97.10
2018-03-04T02:39:04.278Z,97.10
2018-03-04T02:40:04.149Z,97.10
2018-03-04T02:41:04.015Z,97.20
2018-03-04T02:42:03.886Z,97.10
2018-03-04T02:43:03.747Z,97.48
2018-03-04T02:44:03.614Z,97.10
2018-03-04T02:45:03.488Z,97.58
2018-03-04T02:46:03.352Z,97.20
2018-03-04T02:47:03.215Z,97.10
2018-03-04T02:48:03.081Z,97.20
2018-03-04T02:49:02.953Z,97.58
2018-03-04T02:50:02.816Z,97.48
2018-03-04T02:51:02.685Z,97.01
2018-03-04T02:52:02.557Z,96.91
2018-03-04T02:53:02.416Z,97.67
2018-03-04T02:54:02.287Z,97.48
2018-03-04T02:55:02.153Z,97.39
2018-03-04T02:56:02.020Z,97.58
2018-03-04T02:57:01.887Z,97.48
2018-03-04T02:58:01.761Z,97.77
2018-03-04T02:59:01.616Z,97.67
2018-03-04T03:00:01.498Z,97.58
2018-03-04T03:01:01.353Z,97.48
2018-03-04T03:02:01.218Z,97.77
2018-03-04T03:03:01.084Z,97.48
2018-03-04T03:04:00.950Z,97.67
2018-03-04T03:05:00.819Z,97.20
2018-03-04T03:06:00.696Z,97.67
2018-03-04T03:07:00.557Z,97.39
2018-03-04T03:08:00.419Z,97.58
2018-03-04T03:09:00.285Z,97.67
2018-03-04T03:10:00.152Z,97.67
2018-03-04T03:11:00.029Z,97.48
2018-03-04T03:11:59.884Z,97.39
2018-03-04T03:12:59.752Z,97.58
2018-03-04T03:13:59.659Z,97.58
2018-03-04T03:14:59.487Z,98.52
2018-03-04T03:15:59.350Z,97.58
2018-03-04T03:16:59.218Z,97.67
2018-03-04T03:17:59.088Z,97.67
2018-03-04T03:18:58.952Z,97.67
2018-03-04T03:19:58.815Z,97.48
2018-03-04T03:20:58.684Z,97.48
2018-03-04T03:21:58.550Z,97.58
2018-03-04T03:22:58.417Z,97.67
2018-03-04T03:23:58.283Z,97.48
2018-03-04T03:24:58.153Z,97.58
2018-03-04T03:25:58.018Z,97.67
2018-03-04T03:26:57.886Z,97.67
2018-03-04T03:27:57.757Z,97.67
2018-03-04T03:28:57.617Z,97.39
2018-03-04T03:29:57.485Z,97.96
2018-03-04T03:30:57.362Z,97.39
2018-03-04T03:31:57.216Z,97.58
2018-03-04T03:32:57.083Z,97.58
2018-03-04T03:33:56.950Z,97.39
2018-03-04T03:34:56.816Z,97.96
2018-03-04T03:35:56.683Z,97.39
2018-03-04T03:36:56.549Z,97.77
2018-03-04T03:37:56.421Z,98.33
2018-03-04T03:38:56.282Z,98.14
2018-03-04T03:39:56.151Z,97.67
2018-03-04T03:40:56.017Z,97.67
2018-03-04T03:41:55.884Z,97.67
2018-03-04T03:42:55.751Z,97.58
2018-03-04T03:43:55.617Z,97.39
2018-03-04T03:44:55.485Z,97.20
2018-03-04T03:45:55.354Z,97.58
2018-03-04T03:46:55.220Z,97.39
2018-03-04T03:47:55.086Z,97.48
2018-03-04T03:48:54.949Z,97.39
2018-03-04T03:49:54.818Z,97.48
2018-03-04T03:50:54.684Z,97.39
2018-03-04T03:51:54.552Z,97.58
2018-03-04T03:52:54.421Z,97.67
2018-03-04T03:53:54.287Z,97.48
2018-03-04T03:54:54.151Z,98.43
2018-03-04T03:55:54.020Z,97.58
2018-03-04T03:56:53.887Z,97.58
2018-03-04T03:57:53.754Z,97.77
2018-03-04T03:58:53.617Z,98.43
2018-03-04T03:59:53.488Z,97.77
2018-03-04T04:00:53.353Z,97.77
2018-03-04T04:01:53.218Z,97.77
2018-03-04T04:02:53.086Z,97.77
2018-03-04T04:03:52.951Z,97.58
2018-03-04T04:04:52.821Z,98.33
2018-03-04T04:05:52.685Z,97.58
2018-03-04T04:06:52.551Z,97.67
2018-03-04T04:07:52.419Z,98.24
2018-03-04T04:08:52.286Z,98.43
2018-03-04T04:09:52.158Z,97.86
2018-03-04T04:10:52.018Z,98.33
2018-03-04T04:11:51.886Z,98.43
2018-03-04T04:12:51.754Z,98.52
2018-03-04T04:13:51.620Z,98.43
2018-03-04T04:14:51.484Z,98.52
2018-03-04T04:15:51.354Z,97.86
2018-03-04T04:16:51.219Z,97.58
2018-03-04T04:17:51.087Z,97.58
2018-03-04T04:18:50.951Z,98.71
2018-03-04T04:19:50.821Z,98.33
2018-03-04T04:20:50.687Z,97.81
2018-03-04T04:21:50.554Z,98.47
2018-03-04T04:22:50.426Z,98.47
2018-03-04T04:23:50.286Z,97.72
2018-03-04T04:24:50.154Z,97.58
2018-03-04T04:25:50.023Z,98.28
2018-03-04T04:26:49.886Z,98.10
2018-03-04T04:27:49.755Z,98.10
2018-03-04T04:28:49.623Z,98.47
2018-03-04T04:29:49.488Z,98.47
2018-03-04T04:30:49.355Z,98.57
2018-03-04T04:31:49.246Z,98.33
2018-03-04T04:32:49.089Z,98.05
2018-03-04T04:33:48.959Z,98.57
2018-03-04T04:34:48.820Z,98.38
2018-03-04T04:35:48.685Z,98.47
2018-03-04T04:36:48.556Z,98.28
2018-03-04T04:37:48.422Z,98.47
2018-03-04T04:38:48.288Z,98.38
2018-03-04T04:39:48.155Z,97.72
2018-03-04T04:40:48.027Z,98.38
2018-03-04T04:41:47.887Z,98.10
2018-03-04T04:42:47.754Z,98.66
2018-03-04T04:43:47.620Z,98.38
2018-03-04T04:44:47.487Z,98.28
2018-03-04T04:45:47.359Z,98.57
2018-03-04T04:46:47.221Z,98.10
2018-03-04T04:47:47.091Z,98.28
2018-03-04T04:48:46.952Z,98.28
2018-03-04T04:49:46.819Z,98.47
2018-03-04T04:50:46.690Z,98.19
2018-03-04T04:51:46.551Z,98.47
2018-03-04T04:52:46.422Z,98.28
2018-03-04T04:53:46.287Z,98.47
2018-03-04T04:54:46.150Z,98.28
2018-03-04T04:55:46.018Z,98.10
2018-03-04T04:56:45.884Z,98.38
2018-03-04T04:57:45.752Z,98.47
2018-03-04T04:58:45.624Z,98.66
2018-03-04T04:59:45.491Z,98.57
2018-03-04T05:00:45.353Z,98.00
2018-03-04T05:01:45.218Z,98.00
2018-03-04T05:02:45.084Z,98.57
2018-03-04T05:03:44.947Z,98.19
2018-03-04T05:04:44.816Z,98.10
2018-03-04T05:05:44.683Z,98.19
2018-03-04T05:06:44.557Z,98.00
2018-03-04T05:07:44.411Z,98.28
2018-03-04T05:08:44.282Z,98.28
2018-03-04T05:09:44.144Z,98.66
2018-03-04T05:10:44.011Z,98.00
2018-03-04T05:11:43.879Z,98.38
2018-03-04T05:12:43.746Z,98.19
2018-03-04T05:13:43.609Z,98.47
2018-03-04T05:14:43.480Z,98.28
2018-03-04T05:15:43.343Z,98.28
2018-03-04T05:16:43.211Z,98.47
2018-03-04T05:17:43.075Z,98.38
2018-03-04T05:18:42.940Z,98.00
2018-03-04T05:19:42.808Z,98.47
2018-03-04T05:20:42.673Z,98.47
2018-03-04T05:21:42.540Z,98.19
2018-03-04T05:22:42.408Z,98.47
2018-03-04T05:23:42.271Z,98.28
2018-03-04T05:24:42.138Z,98.66
2018-03-04T05:25:42.015Z,98.47
2018-03-04T05:26:41.869Z,98.19
2018-03-04T05:27:41.735Z,98.47
2018-03-04T05:28:41.603Z,98.47
2018-03-04T05:29:41.467Z,98.28
2018-03-04T05:30:41.336Z,98.47
2018-03-04T05:31:41.200Z,98.47
2018-03-04T05:32:41.065Z,98.47
2018-03-04T05:33:40.943Z,98.47
2018-03-04T05:34:40.798Z,98.47
2018-03-04T05:35:40.665Z,98.47
2018-03-04T05:36:40.533Z,98.38
2018-03-04T05:37:40.396Z,98.47
2018-03-04T05:38:40.264Z,98.94
2018-03-04T05:39:40.129Z,98.28
2018-03-04T05:40:39.994Z,98.47
2018-03-04T05:41:39.858Z,98.19
2018-03-04T05:42:39.726Z,98.28
2018-03-04T05:43:39.590Z,98.47
2018-03-04T05:44:39.470Z,98.66
2018-03-04T05:45:39.324Z,98.10
2018-03-04T05:46:39.187Z,99.13
2018-03-04T05:47:39.058Z,98.47
2018-03-04T05:48:38.922Z,98.66
2018-03-04T05:49:38.786Z,98.19
2018-03-04T05:50:38.652Z,98.47
2018-03-04T05:51:38.517Z,98.66
2018-03-04T05:52:38.384Z,98.57
2018-03-04T05:53:38.251Z,98.47
2018-03-04T05:54:38.116Z,98.47
2018-03-04T05:55:37.981Z,98.47
2018-03-04T05:56:37.851Z,98.85
2018-03-04T05:57:37.714Z,98.57
2018-03-04T05:58:37.586Z,98.94
2018-03-04T05:59:37.445Z,98.47
2018-03-04T06:00:37.333Z,98.57
2018-03-04T06:01:37.177Z,98.66
2018-03-04T06:02:37.043Z,98.75
2018-03-04T06:03:36.915Z,98.47
2018-03-04T06:04:36.776Z,98.66
2018-03-04T06:05:36.642Z,98.47
2018-03-04T06:06:36.510Z,98.57
2018-03-04T06:07:36.377Z,98.47
2018-03-04T06:08:36.251Z,98.57
2018-03-04T06:09:36.106Z,98.66
2018-03-04T06:10:35.972Z,98.47
2018-03-04T06:11:35.838Z,98.66
2018-03-04T06:12:35.739Z,98.85
2018-03-04T06:13:35.574Z,99.04
2018-03-04T06:14:35.435Z,98.47
2018-03-04T06:15:35.301Z,98.75
2018-03-04T06:16:35.175Z,98.47
2018-03-04T06:17:35.040Z,98.47
2018-03-04T06:18:34.899Z,99.41
2018-03-04T06:19:34.764Z,99.04
2018-03-04T06:20:34.631Z,98.57
2018-03-04T06:21:34.496Z,98.94
2018-03-04T06:22:34.365Z,98.94
2018-03-04T06:23:34.236Z,98.47
2018-03-04T06:24:34.117Z,98.66
2018-03-04T06:25:33.960Z,98.57
2018-03-04T06:26:33.825Z,98.75
2018-03-04T06:27:33.691Z,98.47
2018-03-04T06:28:33.558Z,98.38
2018-03-04T06:29:33.424Z,99.41
2018-03-04T06:30:33.288Z,99.70
2018-03-04T06:31:33.152Z,99.04
2018-03-04T06:32:33.024Z,98.28
2018-03-04T06:33:32.887Z,98.47
2018-03-04T06:34:32.754Z,98.47
2018-03-04T06:35:32.619Z,98.47
2018-03-04T06:36:32.484Z,98.57
2018-03-04T06:37:32.359Z,98.94
2018-03-04T06:38:32.216Z,98.94
2018-03-04T06:39:32.082Z,98.47
2018-03-04T06:40:31.954Z,98.66
2018-03-04T06:41:31.815Z,98.94
2018-03-04T06:42:31.680Z,98.85
2018-03-04T06:43:31.546Z,99.22
2018-03-04T06:44:31.410Z,99.04
2018-03-04T06:45:31.278Z,98.75
2018-03-04T06:46:31.147Z,98.28
2018-03-04T06:47:31.016Z,98.57
2018-03-04T06:48:30.878Z,98.66
2018-03-04T06:49:30.749Z,98.75
2018-03-04T06:50:30.608Z,98.66
2018-03-04T06:51:30.476Z,98.66
2018-03-04T06:52:30.342Z,98.19
2018-03-04T06:53:30.207Z,98.75
2018-03-04T06:54:30.077Z,99.13
2018-03-04T06:55:29.942Z,98.38
2018-03-04T06:56:29.805Z,99.41
2018-03-04T06:57:29.672Z,99.22
2018-03-04T06:58:29.540Z,98.19
2018-03-04T06:59:29.408Z,98.66
2018-03-04T07:00:29.271Z,98.47
2018-03-04T07:01:29.137Z,98.66
2018-03-04T07:02:29.005Z,98.75
2018-03-04T07:03:28.869Z,99.13
2018-03-04T07:04:28.733Z,98.85
2018-03-04T07:05:28.602Z,98.75
2018-03-04T07:06:28.468Z,98.94
2018-03-04T07:07:28.336Z,99.04
2018-03-04T07:08:28.199Z,98.85
2018-03-04T07:09:28.067Z,98.57
2018-03-04T07:10:27.981Z,98.47
2018-03-04T07:11:27.798Z,99.41
2018-03-04T07:12:27.666Z,99.41
2018-03-04T07:13:27.531Z,98.85
2018-03-04T07:14:27.403Z,98.66
2018-03-04T07:15:27.263Z,98.47
2018-03-04T07:16:27.132Z,98.85
2018-03-04T07:17:26.998Z,98.28
2018-03-04T07:18:26.862Z,98.66
2018-03-04T07:19:26.727Z,99.99
2018-03-04T07:20:26.594Z,99.84
2018-03-04T07:21:26.463Z,99.65
2018-03-04T07:22:26.329Z,99.56
2018-03-04T07:23:26.229Z,99.37
2018-03-04T07:24:26.068Z,99.23
2018-03-04T07:25:25.929Z,99.04
2018-03-04T07:26:25.796Z,98.19
2018-03-04T07:27:25.666Z,96.68
2018-03-04T07:28:25.532Z,96.68
2018-03-04T07:29:25.438Z,96.73
2018-03-04T07:30:25.270Z,97.58
2018-03-04T07:31:25.136Z,96.35
2018-03-04T07:32:25.004Z,94.04
2018-03-04T07:33:24.897Z,91.39
2018-03-04T07:34:24.738Z,89.78
2018-03-04T07:35:24.611Z,89.50
2018-03-04T07:36:24.500Z,89.87
2018-03-04T07:37:24.347Z,89.50
2018-03-04T07:38:24.214Z,90.34
2018-03-04T07:39:24.087Z,90.53
2018-03-04T07:40:23.955Z,87.88
2018-03-04T07:41:23.827Z,84.67
2018-03-04T07:42:23.694Z,80.45
2018-03-04T07:43:23.563Z,78.65
2018-03-04T07:44:23.438Z,76.76
2018-03-04T07:45:23.303Z,74.21
2018-03-04T07:46:23.180Z,73.26
2018-03-04T07:47:23.051Z,73.73
2018-03-04T07:48:22.918Z,77.14
2018-03-04T07:49:22.790Z,79.83
2018-03-04T07:50:22.661Z,80.58
2018-03-04T07:51:22.529Z,79.55
2018-03-04T07:52:22.405Z,79.83
2018-03-04T07:53:22.272Z,79.83
2018-03-04T07:54:22.143Z,83.81
2018-03-04T07:55:22.017Z,81.44
2018-03-04T07:56:21.885Z,79.26
2018-03-04T07:57:21.756Z,79.36
2018-03-04T07:58:21.653Z,79.74
2018-03-04T07:59:21.501Z,80.74
2018-03-04T08:00:21.372Z,82.06
2018-03-04T08:01:21.249Z,81.68
2018-03-04T08:02:21.115Z,83.39
2018-03-04T08:03:20.990Z,83.95
2018-03-04T08:04:20.855Z,83.62
2018-03-04T08:05:20.728Z,84.47
2018-03-04T08:06:20.599Z,78.98
2018-03-04T08:07:20.472Z,80.40
2018-03-04T08:08:20.344Z,79.58
2018-03-04T08:09:20.215Z,78.83
2018-03-04T08:10:20.086Z,76.74
2018-03-04T08:11:19.957Z,75.70
2018-03-04T08:12:19.831Z,74.79
2018-03-04T08:13:19.701Z,72.23
2018-03-04T08:14:19.574Z,71.76
2018-03-04T08:15:19.458Z,70.15
2018-03-04T08:16:19.319Z,67.77
2018-03-04T08:17:20.021Z,66.83
2018-03-04T08:18:19.142Z,65.22
2018-03-04T08:19:18.935Z,64.27
2018-03-04T08:20:18.811Z,64.93
2018-03-04T08:21:18.683Z,64.93
2018-03-04T08:22:18.554Z,65.41
2018-03-04T08:23:18.431Z,65.03
2018-03-04T08:24:18.301Z,63.79
2018-03-04T08:25:18.177Z,63.04
2018-03-04T08:26:18.048Z,64.46
2018-03-04T08:27:17.921Z,64.36
2018-03-04T08:28:17.794Z,64.52
2018-03-04T08:29:17.669Z,66.32
2018-03-04T08:30:17.538Z,68.15
2018-03-04T08:31:17.412Z,67.40
2018-03-04T08:32:17.286Z,67.11
2018-03-04T08:33:17.163Z,64.93
2018-03-04T08:34:17.031Z,65.97
2018-03-04T08:35:16.906Z,63.95
2018-03-04T08:36:16.776Z,64.90
2018-03-04T08:37:16.648Z,64.42
2018-03-04T08:38:16.522Z,64.33
2018-03-04T08:39:16.396Z,64.14
2018-03-04T08:40:16.271Z,64.65
2018-03-04T08:41:16.316Z,65.03
2018-03-04T08:42:16.018Z,63.23
2018-03-04T08:43:15.892Z,63.13
2018-03-04T08:44:15.765Z,64.74
2018-03-04T08:45:15.642Z,64.74
2018-03-04T08:46:15.510Z,64.84
2018-03-04T08:47:15.391Z,65.59
2018-03-04T08:48:15.547Z,66.20
2018-03-04T08:49:15.138Z,67.24
2018-03-04T08:50:15.006Z,67.24
2018-03-04T08:51:14.880Z,67.62
2018-03-04T08:52:14.753Z,68.29
2018-03-04T08:53:14.628Z,68.38
2018-03-04T08:54:14.502Z,67.52
2018-03-04T08:55:14.375Z,66.58
2018-03-04T08:56:14.250Z,66.10
2018-03-04T08:57:14.125Z,65.82
2018-03-04T08:58:13.996Z,64.59
2018-03-04T08:59:13.870Z,63.73
2018-03-04T09:00:13.745Z,63.17
2018-03-04T09:01:13.620Z,64.01
2018-03-04T09:02:13.539Z,63.73
2018-03-04T09:03:13.365Z,64.62
2018-03-04T09:04:13.242Z,64.01
2018-03-04T09:05:13.117Z,64.68
2018-03-04T09:06:12.989Z,66.04
2018-03-04T09:07:12.861Z,66.52
2018-03-04T09:08:12.737Z,67.56
2018-03-04T09:09:12.613Z,66.99
2018-03-04T09:10:12.486Z,66.96
2018-03-04T09:11:12.360Z,67.52
2018-03-04T09:12:12.238Z,67.71
2018-03-04T09:13:12.117Z,67.14
2018-03-04T09:14:11.984Z,68.00
2018-03-04T09:15:11.856Z,68.00
2018-03-04T09:16:11.730Z,67.62
2018-03-04T09:17:11.602Z,69.17
2018-03-04T09:18:11.478Z,67.52
2018-03-04T09:19:11.351Z,65.91
2018-03-04T09:20:11.227Z,65.91
2018-03-04T09:21:11.099Z,64.52
2018-03-04T09:22:10.973Z,62.05
2018-03-04T09:23:10.851Z,62.43
2018-03-04T09:24:10.723Z,62.46
2018-03-04T09:25:10.598Z,61.07
2018-03-04T09:26:10.472Z,61.17
2018-03-04T09:27:10.345Z,59.46
2018-03-04T09:28:10.221Z,60.10
2018-03-04T09:29:10.094Z,60.19
2018-03-04T09:30:09.967Z,61.14
2018-03-04T09:31:09.847Z,61.33
2018-03-04T09:32:09.722Z,60.95
2018-03-04T09:33:09.597Z,60.66
2018-03-04T09:34:09.492Z,60.57
2018-03-04T09:35:09.344Z,61.14
2018-03-04T09:36:09.220Z,61.17
2018-03-04T09:37:09.092Z,59.46
2018-03-04T09:38:08.967Z,59.14
2018-03-04T09:39:08.840Z,58.95
2018-03-04T09:40:08.715Z,60.10
2018-03-04T09:41:08.593Z,59.36
2018-03-04T09:42:08.467Z,58.89
2018-03-04T09:43:08.341Z,58.61
2018-03-04T09:44:08.217Z,58.41
2018-03-04T09:45:08.097Z,58.63
2018-03-04T09:46:07.971Z,58.83
2018-03-04T09:47:07.841Z,54.86
2018-03-04T09:48:07.722Z,54.55
2018-03-04T09:49:07.596Z,55.69
2018-03-04T09:50:07.471Z,56.07
2018-03-04T09:51:07.346Z,56.73
2018-03-04T09:52:07.221Z,56.16
2018-03-04T09:53:07.097Z,56.83
2018-03-04T09:54:06.973Z,56.48
2018-03-04T09:55:06.849Z,56.67
2018-03-04T09:56:06.727Z,55.52
2018-03-04T09:57:06.601Z,54.69
2018-03-04T09:58:06.477Z,51.58
2018-03-04T09:59:06.363Z,48.82
2018-03-04T10:00:06.230Z,50.51
2018-03-04T10:01:06.107Z,51.72
2018-03-04T10:02:05.991Z,52.58
2018-03-04T10:03:05.865Z,53.43
2018-03-04T10:04:05.740Z,54.48
2018-03-04T10:05:05.618Z,53.31
2018-03-04T10:06:05.490Z,51.22
2018-03-04T10:07:05.367Z,50.37
2018-03-04T10:08:05.242Z,49.04
2018-03-04T10:09:05.129Z,49.04
2018-03-04T10:10:05.001Z,49.32
2018-03-04T10:11:04.873Z,50.27
2018-03-04T10:12:04.749Z,51.98
2018-03-04T10:13:04.626Z,54.67
2018-03-04T10:14:04.508Z,51.25
2018-03-04T10:15:04.377Z,47.92
2018-03-04T10:16:04.255Z,47.06
2018-03-04T10:17:04.189Z,46.40
2018-03-04T10:18:04.007Z,46.00
2018-03-04T10:19:03.886Z,46.09
2018-03-04T10:20:03.760Z,46.47
2018-03-04T10:21:03.664Z,46.20
2018-03-04T10:22:03.517Z,47.06
2018-03-04T10:23:03.390Z,48.13
2018-03-04T10:24:03.264Z,46.04
2018-03-04T10:25:03.149Z,45.09
2018-03-04T10:26:03.111Z,44.80
2018-03-04T10:27:02.893Z,45.56
2018-03-04T10:28:02.771Z,45.68
2018-03-04T10:29:02.691Z,44.71
2018-03-04T10:30:02.531Z,44.42
2018-03-04T10:31:02.402Z,44.42
2018-03-04T10:32:02.281Z,44.13
2018-03-04T10:33:02.155Z,44.64
2018-03-04T10:34:02.031Z,44.35
2018-03-04T10:35:01.909Z,43.78
2018-03-04T10:36:01.785Z,45.68
2018-03-04T10:37:01.662Z,47.49
2018-03-04T10:38:01.538Z,47.56
2018-03-04T10:39:01.415Z,46.99
2018-03-04T10:40:01.292Z,46.25
2018-03-04T10:41:01.173Z,46.42
2018-03-04T10:42:01.048Z,46.54
2018-03-04T10:43:00.923Z,46.44
2018-03-04T10:44:00.802Z,45.47
2018-03-04T10:45:00.680Z,45.59
2018-03-04T10:46:00.555Z,45.30
2018-03-04T10:47:00.435Z,45.49
2018-03-04T10:48:00.308Z,44.73
2018-03-04T10:49:00.185Z,44.26
2018-03-04T10:50:00.064Z,43.99
2018-03-04T10:50:59.940Z,43.80
2018-03-04T10:51:59.819Z,44.85
2018-03-04T10:52:59.813Z,45.42
2018-03-04T10:53:59.575Z,45.99
2018-03-04T10:54:59.451Z,45.89
2018-03-04T10:55:59.329Z,45.78
2018-03-04T10:56:59.208Z,46.44
2018-03-04T10:57:59.086Z,46.35
2018-03-04T10:58:58.962Z,47.30
2018-03-04T10:59:58.839Z,48.61
2018-03-04T11:00:58.719Z,49.01
2018-03-04T11:01:58.597Z,49.68
2018-03-04T11:02:58.477Z,49.90
2018-03-04T11:03:58.379Z,49.99
2018-03-04T11:04:58.235Z,47.71
2018-03-04T11:05:58.111Z,47.25
2018-03-04T11:06:57.988Z,47.25
2018-03-04T11:07:57.869Z,48.21
2018-03-04T11:08:57.743Z,48.52
2018-03-04T11:09:57.628Z,47.66
2018-03-04T11:10:57.506Z,47.63
2018-03-04T11:11:57.382Z,48.85
2018-03-04T11:12:57.258Z,50.46
2018-03-04T11:13:57.141Z,51.42
2018-03-04T11:14:57.015Z,52.37
2018-03-04T11:15:56.894Z,51.70
2018-03-04T11:16:56.777Z,51.70
2018-03-04T11:17:56.651Z,50.56
2018-03-04T11:18:56.533Z,50.46
2018-03-04T11:19:56.409Z,50.49
2018-03-04T11:20:56.289Z,51.14
2018-03-04T11:21:56.167Z,51.42
2018-03-04T11:22:56.043Z,51.14
2018-03-04T11:23:55.925Z,51.70
2018-03-04T11:24:55.805Z,50.56
2018-03-04T11:25:55.680Z,50.46
2018-03-04T11:26:55.580Z,48.97
2018-03-04T11:27:55.436Z,48.52
2018-03-04T11:28:55.319Z,47.37
2018-03-04T11:29:55.193Z,46.51
2018-03-04T11:30:55.071Z,45.84
2018-03-04T11:31:54.949Z,46.01
2018-03-04T11:32:54.842Z,46.39
2018-03-04T11:33:54.720Z,46.09
2018-03-04T11:34:54.587Z,45.70
2018-03-04T11:35:54.464Z,46.09
2018-03-04T11:36:54.347Z,46.09
2018-03-04T11:37:54.221Z,46.28
2018-03-04T11:38:54.101Z,46.37
2018-03-04T11:39:53.980Z,47.23
2018-03-04T11:40:53.859Z,47.23
2018-03-04T11:41:53.736Z,46.47
2018-03-04T11:42:53.620Z,47.13
2018-03-04T11:43:53.512Z,46.97
2018-03-04T11:44:53.387Z,47.28
2018-03-04T11:45:53.249Z,45.73
2018-03-04T11:46:53.124Z,45.54
2018-03-04T11:47:53.008Z,44.99
2018-03-04T11:48:52.893Z,43.75
2018-03-04T11:49:52.795Z,43.27
2018-03-04T11:50:52.641Z,43.46
2018-03-04T11:51:52.524Z,43.84
2018-03-04T11:52:52.401Z,43.18
2018-03-04T11:53:52.277Z,44.49
2018-03-04T11:54:52.154Z,44.37
2018-03-04T11:55:52.073Z,45.04
2018-03-04T11:56:51.914Z,45.30
2018-03-04T11:57:51.791Z,44.35
2018-03-04T11:58:51.674Z,43.49
2018-03-04T11:59:51.549Z,42.25
2018-03-04T12:00:51.426Z,41.33
2018-03-04T12:01:51.303Z,40.56
2018-03-04T12:02:51.180Z,39.99
2018-03-04T12:03:51.067Z,39.32
2018-03-04T12:04:50.953Z,40.58
2018-03-04T12:05:50.848Z,40.68
2018-03-04T12:06:50.744Z,40.60
2018-03-04T12:07:50.715Z,40.41
2018-03-04T12:08:50.554Z,39.25
2018-03-04T12:09:50.504Z,39.53
2018-03-04T12:10:50.229Z,40.01
2018-03-04T12:11:50.090Z,39.27
2018-03-04T12:12:49.978Z,38.89
2018-03-04T12:13:49.848Z,38.12
2018-03-04T12:14:49.724Z,38.70
2018-03-04T12:15:49.603Z,38.29
2018-03-04T12:16:49.478Z,38.98
2018-03-04T12:17:49.358Z,39.46
2018-03-04T12:18:49.316Z,38.98
2018-03-04T12:19:49.164Z,38.87
2018-03-04T12:20:48.992Z,39.73
2018-03-04T12:21:49.024Z,39.56
2018-03-04T12:22:48.822Z,38.53
2018-03-04T12:23:48.703Z,37.48
2018-03-04T12:24:48.595Z,37.66
2018-03-04T12:25:48.530Z,37.38
2018-03-04T12:26:48.306Z,36.05
2018-03-04T12:27:48.145Z,35.00
2018-03-04T12:28:48.032Z,34.98
2018-03-04T12:29:48.052Z,35.95
2018-03-04T12:30:47.782Z,36.43
2018-03-04T12:31:48.053Z,36.05
2018-03-04T12:32:47.649Z,35.76
2018-03-04T12:33:47.415Z,35.00
2018-03-04T12:34:47.298Z,35.86
2018-03-04T12:35:47.214Z,35.76
2018-03-04T12:36:47.053Z,36.14
2018-03-04T12:37:46.979Z,36.07
2018-03-04T12:38:47.010Z,35.02
2018-03-04T12:39:46.690Z,34.82
2018-03-04T12:40:46.568Z,34.34
2018-03-04T12:41:46.446Z,34.05
2018-03-04T12:42:46.328Z,34.23
2018-03-04T12:43:46.253Z,34.42
2018-03-04T12:44:46.090Z,34.90
2018-03-04T12:45:45.963Z,34.25
2018-03-04T12:46:45.843Z,33.78
2018-03-04T12:47:45.726Z,34.16
2018-03-04T12:48:45.605Z,33.60
2018-03-04T12:49:45.480Z,32.74
2018-03-04T12:50:45.365Z,32.76